sensor_id;sensor_type;location;lat;lon;timestamp;P1;durP1;ratioP1;P2;durP2;ratioP2
11334;SDS011;5722;42.620;23.374;2022-10-16T00:01:38;11.10;;;8.77;;
11334;SDS011;5722;42.620;23.374;2022-10-16T00:04:10;10.53;;;8.20;;
11334;SDS011;5722;42.620;23.374;2022-10-16T00:06:37;9.53;;;8.40;;
11334;SDS011;5722;42.620;23.374;2022-10-16T00:09:06;12.83;;;9.07;;
11334;SDS011;5722;42.620;23.374;2022-10-16T00:11:42;9.57;;;8.37;;
11334;SDS011;5722;42.620;23.374;2022-10-16T00:16:41;13.23;;;8.97;;
11334;SDS011;5722;42.620;23.374;2022-10-16T00:19:10;10.40;;;8.53;;
11334;SDS011;5722;42.620;23.374;2022-10-16T00:21:46;10.70;;;8.40;;
11334;SDS011;5722;42.620;23.374;2022-10-16T00:24:14;9.20;;;8.03;;
11334;SDS011;5722;42.620;23.374;2022-10-16T00:26:48;10.03;;;8.37;;
11334;SDS011;5722;42.620;23.374;2022-10-16T00:29:23;9.63;;;7.70;;
11334;SDS011;5722;42.620;23.374;2022-10-16T00:31:58;8.33;;;7.47;;
11334;SDS011;5722;42.620;23.374;2022-10-16T00:34:25;10.33;;;6.97;;
11334;SDS011;5722;42.620;23.374;2022-10-16T00:36:59;7.70;;;6.40;;
11334;SDS011;5722;42.620;23.374;2022-10-16T00:39:26;8.47;;;6.00;;
11334;SDS011;5722;42.620;23.374;2022-10-16T00:41:56;10.53;;;6.43;;
11334;SDS011;5722;42.620;23.374;2022-10-16T00:47:13;8.90;;;6.37;;
11334;SDS011;5722;42.620;23.374;2022-10-16T00:49:42;9.07;;;6.30;;
11334;SDS011;5722;42.620;23.374;2022-10-16T00:52:10;8.13;;;6.37;;
11334;SDS011;5722;42.620;23.374;2022-10-16T00:54:38;9.90;;;6.53;;
11334;SDS011;5722;42.620;23.374;2022-10-16T00:57:06;7.60;;;5.90;;
11334;SDS011;5722;42.620;23.374;2022-10-16T00:59:36;8.00;;;6.57;;
11334;SDS011;5722;42.620;23.374;2022-10-16T01:02:10;7.13;;;6.00;;
11334;SDS011;5722;42.620;23.374;2022-10-16T01:04:38;9.37;;;5.87;;
11334;SDS011;5722;42.620;23.374;2022-10-16T01:07:09;7.93;;;6.07;;
11334;SDS011;5722;42.620;23.374;2022-10-16T01:09:41;9.80;;;7.10;;
11334;SDS011;5722;42.620;23.374;2022-10-16T01:12:14;7.33;;;6.13;;
11334;SDS011;5722;42.620;23.374;2022-10-16T01:14:43;8.90;;;6.27;;
11334;SDS011;5722;42.620;23.374;2022-10-16T01:17:13;6.73;;;6.03;;
11334;SDS011;5722;42.620;23.374;2022-10-16T01:19:51;8.80;;;6.13;;
11334;SDS011;5722;42.620;23.374;2022-10-16T01:22:25;8.20;;;6.80;;
11334;SDS011;5722;42.620;23.374;2022-10-16T01:24:53;8.93;;;6.40;;
11334;SDS011;5722;42.620;23.374;2022-10-16T01:27:23;10.87;;;6.60;;
11334;SDS011;5722;42.620;23.374;2022-10-16T01:29:52;7.90;;;6.60;;
11334;SDS011;5722;42.620;23.374;2022-10-16T01:32:27;9.53;;;6.20;;
11334;SDS011;5722;42.620;23.374;2022-10-16T01:35:01;8.07;;;6.33;;
11334;SDS011;5722;42.620;23.374;2022-10-16T01:37:32;8.57;;;6.70;;
11334;SDS011;5722;42.620;23.374;2022-10-16T01:40:02;9.43;;;6.60;;
11334;SDS011;5722;42.620;23.374;2022-10-16T01:42:39;9.27;;;6.57;;
11334;SDS011;5722;42.620;23.374;2022-10-16T01:45:12;7.77;;;6.80;;
11334;SDS011;5722;42.620;23.374;2022-10-16T01:47:40;10.33;;;6.17;;
11334;SDS011;5722;42.620;23.374;2022-10-16T01:50:11;7.80;;;6.87;;
11334;SDS011;5722;42.620;23.374;2022-10-16T01:52:40;7.40;;;6.10;;
11334;SDS011;5722;42.620;23.374;2022-10-16T01:55:10;7.20;;;6.03;;
11334;SDS011;5722;42.620;23.374;2022-10-16T01:57:56;7.17;;;6.13;;
11334;SDS011;5722;42.620;23.374;2022-10-16T02:00:28;9.07;;;6.77;;
11334;SDS011;5722;42.620;23.374;2022-10-16T02:02:56;8.30;;;7.40;;
11334;SDS011;5722;42.620;23.374;2022-10-16T02:05:27;8.83;;;6.90;;
11334;SDS011;5722;42.620;23.374;2022-10-16T02:08:04;7.37;;;6.67;;
11334;SDS011;5722;42.620;23.374;2022-10-16T02:10:32;8.20;;;7.27;;
11334;SDS011;5722;42.620;23.374;2022-10-16T02:15:43;8.63;;;6.80;;
11334;SDS011;5722;42.620;23.374;2022-10-16T02:18:12;10.20;;;7.23;;
11334;SDS011;5722;42.620;23.374;2022-10-16T02:20:49;8.07;;;6.60;;
11334;SDS011;5722;42.620;23.374;2022-10-16T02:23:33;8.37;;;7.20;;
11334;SDS011;5722;42.620;23.374;2022-10-16T02:26:06;9.17;;;7.17;;
11334;SDS011;5722;42.620;23.374;2022-10-16T02:28:40;8.37;;;6.57;;
11334;SDS011;5722;42.620;23.374;2022-10-16T02:31:11;7.57;;;6.77;;
11334;SDS011;5722;42.620;23.374;2022-10-16T02:33:42;8.30;;;7.13;;
11334;SDS011;5722;42.620;23.374;2022-10-16T02:36:13;8.73;;;7.17;;
11334;SDS011;5722;42.620;23.374;2022-10-16T02:38:42;8.33;;;6.73;;
11334;SDS011;5722;42.620;23.374;2022-10-16T02:41:22;7.60;;;6.80;;
11334;SDS011;5722;42.620;23.374;2022-10-16T02:43:51;7.73;;;6.93;;
11334;SDS011;5722;42.620;23.374;2022-10-16T02:46:23;9.87;;;7.27;;
11334;SDS011;5722;42.620;23.374;2022-10-16T02:48:52;9.67;;;7.40;;
11334;SDS011;5722;42.620;23.374;2022-10-16T02:51:22;7.70;;;6.87;;
11334;SDS011;5722;42.620;23.374;2022-10-16T02:53:49;7.83;;;6.97;;
11334;SDS011;5722;42.620;23.374;2022-10-16T02:56:17;8.40;;;6.80;;
11334;SDS011;5722;42.620;23.374;2022-10-16T02:58:44;7.90;;;7.10;;
11334;SDS011;5722;42.620;23.374;2022-10-16T03:01:18;7.73;;;6.93;;
11334;SDS011;5722;42.620;23.374;2022-10-16T03:03:53;8.93;;;7.20;;
11334;SDS011;5722;42.620;23.374;2022-10-16T03:06:21;12.93;;;7.37;;
11334;SDS011;5722;42.620;23.374;2022-10-16T03:08:51;8.93;;;7.47;;
11334;SDS011;5722;42.620;23.374;2022-10-16T03:11:21;8.57;;;7.30;;
11334;SDS011;5722;42.620;23.374;2022-10-16T03:13:53;10.80;;;6.87;;
11334;SDS011;5722;42.620;23.374;2022-10-16T03:16:22;8.67;;;7.73;;
11334;SDS011;5722;42.620;23.374;2022-10-16T03:18:49;11.27;;;6.93;;
11334;SDS011;5722;42.620;23.374;2022-10-16T03:24:03;9.73;;;7.70;;
11334;SDS011;5722;42.620;23.374;2022-10-16T03:26:34;8.67;;;7.77;;
11334;SDS011;5722;42.620;23.374;2022-10-16T03:29:01;10.63;;;7.80;;
11334;SDS011;5722;42.620;23.374;2022-10-16T03:31:30;9.40;;;7.57;;
11334;SDS011;5722;42.620;23.374;2022-10-16T03:33:59;8.83;;;7.60;;
11334;SDS011;5722;42.620;23.374;2022-10-16T03:36:28;9.03;;;7.97;;
11334;SDS011;5722;42.620;23.374;2022-10-16T03:38:58;9.40;;;8.40;;
11334;SDS011;5722;42.620;23.374;2022-10-16T03:41:27;8.80;;;7.13;;
11334;SDS011;5722;42.620;23.374;2022-10-16T03:43:55;10.77;;;7.80;;
11334;SDS011;5722;42.620;23.374;2022-10-16T03:46:26;10.53;;;8.13;;
11334;SDS011;5722;42.620;23.374;2022-10-16T03:48:53;9.67;;;8.60;;
11334;SDS011;5722;42.620;23.374;2022-10-16T03:51:20;9.07;;;8.07;;
11334;SDS011;5722;42.620;23.374;2022-10-16T03:53:48;9.77;;;8.77;;
11334;SDS011;5722;42.620;23.374;2022-10-16T03:56:16;10.80;;;8.30;;
11334;SDS011;5722;42.620;23.374;2022-10-16T03:58:48;10.33;;;8.37;;
11334;SDS011;5722;42.620;23.374;2022-10-16T04:01:17;10.60;;;8.30;;
11334;SDS011;5722;42.620;23.374;2022-10-16T04:03:48;11.83;;;8.57;;
11334;SDS011;5722;42.620;23.374;2022-10-16T04:08:47;14.57;;;9.60;;
11334;SDS011;5722;42.620;23.374;2022-10-16T04:11:18;10.60;;;8.73;;
11334;SDS011;5722;42.620;23.374;2022-10-16T04:13:54;11.60;;;9.23;;
11334;SDS011;5722;42.620;23.374;2022-10-16T04:16:25;14.47;;;9.33;;
11334;SDS011;5722;42.620;23.374;2022-10-16T04:18:52;10.43;;;9.33;;
11334;SDS011;5722;42.620;23.374;2022-10-16T04:21:21;11.67;;;9.47;;
11334;SDS011;5722;42.620;23.374;2022-10-16T04:23:53;13.53;;;9.63;;
11334;SDS011;5722;42.620;23.374;2022-10-16T04:26:21;12.67;;;9.67;;
11334;SDS011;5722;42.620;23.374;2022-10-16T04:28:52;11.67;;;9.03;;
11334;SDS011;5722;42.620;23.374;2022-10-16T04:31:22;13.80;;;9.83;;
11334;SDS011;5722;42.620;23.374;2022-10-16T04:33:52;10.97;;;9.33;;
11334;SDS011;5722;42.620;23.374;2022-10-16T04:36:23;10.00;;;9.03;;
11334;SDS011;5722;42.620;23.374;2022-10-16T04:38:50;10.73;;;9.43;;
11334;SDS011;5722;42.620;23.374;2022-10-16T04:41:18;13.17;;;9.73;;
11334;SDS011;5722;42.620;23.374;2022-10-16T04:43:50;15.80;;;10.47;;
11334;SDS011;5722;42.620;23.374;2022-10-16T04:46:18;12.80;;;10.33;;
11334;SDS011;5722;42.620;23.374;2022-10-16T04:48:51;13.97;;;10.83;;
11334;SDS011;5722;42.620;23.374;2022-10-16T04:51:19;12.30;;;10.80;;
11334;SDS011;5722;42.620;23.374;2022-10-16T04:53:51;13.87;;;12.10;;
11334;SDS011;5722;42.620;23.374;2022-10-16T04:56:20;16.63;;;14.67;;
11334;SDS011;5722;42.620;23.374;2022-10-16T04:58:48;12.87;;;11.20;;
11334;SDS011;5722;42.620;23.374;2022-10-16T05:01:15;12.10;;;10.77;;
11334;SDS011;5722;42.620;23.374;2022-10-16T05:03:45;12.57;;;10.40;;
11334;SDS011;5722;42.620;23.374;2022-10-16T05:06:15;11.43;;;10.23;;
11334;SDS011;5722;42.620;23.374;2022-10-16T05:08:43;11.00;;;9.90;;
11334;SDS011;5722;42.620;23.374;2022-10-16T05:11:12;11.27;;;9.90;;
11334;SDS011;5722;42.620;23.374;2022-10-16T05:13:43;10.50;;;9.40;;
11334;SDS011;5722;42.620;23.374;2022-10-16T05:16:17;12.90;;;10.23;;
11334;SDS011;5722;42.620;23.374;2022-10-16T05:18:56;11.07;;;9.83;;
11334;SDS011;5722;42.620;23.374;2022-10-16T05:21:23;14.13;;;9.67;;
11334;SDS011;5722;42.620;23.374;2022-10-16T05:23:53;11.03;;;9.87;;
11334;SDS011;5722;42.620;23.374;2022-10-16T05:26:38;13.60;;;9.73;;
11334;SDS011;5722;42.620;23.374;2022-10-16T05:29:06;11.20;;;9.57;;
11334;SDS011;5722;42.620;23.374;2022-10-16T05:31:37;13.03;;;9.63;;
11334;SDS011;5722;42.620;23.374;2022-10-16T05:34:06;11.17;;;9.97;;
11334;SDS011;5722;42.620;23.374;2022-10-16T05:36:33;12.03;;;9.73;;
11334;SDS011;5722;42.620;23.374;2022-10-16T05:39:04;12.40;;;10.17;;
11334;SDS011;5722;42.620;23.374;2022-10-16T05:41:35;11.87;;;9.57;;
11334;SDS011;5722;42.620;23.374;2022-10-16T05:44:04;12.57;;;9.63;;
11334;SDS011;5722;42.620;23.374;2022-10-16T05:46:31;10.23;;;9.10;;
11334;SDS011;5722;42.620;23.374;2022-10-16T05:49:02;10.67;;;9.40;;
11334;SDS011;5722;42.620;23.374;2022-10-16T05:54:22;12.07;;;9.50;;
11334;SDS011;5722;42.620;23.374;2022-10-16T05:56:53;13.03;;;9.40;;
11334;SDS011;5722;42.620;23.374;2022-10-16T05:59:36;9.43;;;8.40;;
11334;SDS011;5722;42.620;23.374;2022-10-16T06:02:05;12.07;;;8.60;;
11334;SDS011;5722;42.620;23.374;2022-10-16T06:04:34;10.43;;;8.23;;
11334;SDS011;5722;42.620;23.374;2022-10-16T06:07:01;9.87;;;8.87;;
11334;SDS011;5722;42.620;23.374;2022-10-16T06:09:38;9.13;;;8.10;;
11334;SDS011;5722;42.620;23.374;2022-10-16T06:12:10;12.03;;;7.90;;
11334;SDS011;5722;42.620;23.374;2022-10-16T06:14:38;10.43;;;8.13;;
11334;SDS011;5722;42.620;23.374;2022-10-16T06:17:08;9.37;;;7.93;;
11334;SDS011;5722;42.620;23.374;2022-10-16T06:19:37;10.17;;;8.77;;
11334;SDS011;5722;42.620;23.374;2022-10-16T06:22:08;11.37;;;9.13;;
11334;SDS011;5722;42.620;23.374;2022-10-16T06:27:21;7.83;;;7.10;;
11334;SDS011;5722;42.620;23.374;2022-10-16T06:29:52;8.53;;;7.43;;
11334;SDS011;5722;42.620;23.374;2022-10-16T06:35:09;8.57;;;6.73;;
11334;SDS011;5722;42.620;23.374;2022-10-16T06:37:48;8.77;;;7.40;;
11334;SDS011;5722;42.620;23.374;2022-10-16T06:40:18;11.33;;;7.07;;
11334;SDS011;5722;42.620;23.374;2022-10-16T06:42:48;8.80;;;6.87;;
11334;SDS011;5722;42.620;23.374;2022-10-16T06:45:17;8.50;;;6.67;;
11334;SDS011;5722;42.620;23.374;2022-10-16T06:53:57;7.10;;;6.40;;
11334;SDS011;5722;42.620;23.374;2022-10-16T08:45:27;7.57;;;6.37;;
11334;SDS011;5722;42.620;23.374;2022-10-16T08:50:44;5.43;;;4.47;;
11334;SDS011;5722;42.620;23.374;2022-10-16T08:53:19;8.10;;;4.50;;
11334;SDS011;5722;42.620;23.374;2022-10-16T08:55:51;5.43;;;4.23;;
11334;SDS011;5722;42.620;23.374;2022-10-16T08:58:26;4.33;;;3.77;;
11334;SDS011;5722;42.620;23.374;2022-10-16T09:04:11;5.00;;;4.40;;
11334;SDS011;5722;42.620;23.374;2022-10-16T09:06:48;5.77;;;4.47;;
11334;SDS011;5722;42.620;23.374;2022-10-16T09:09:24;12.63;;;4.40;;
11334;SDS011;5722;42.620;23.374;2022-10-16T09:11:58;4.73;;;4.20;;
11334;SDS011;5722;42.620;23.374;2022-10-16T09:14:39;4.93;;;4.20;;
11334;SDS011;5722;42.620;23.374;2022-10-16T09:17:17;5.73;;;4.23;;
11334;SDS011;5722;42.620;23.374;2022-10-16T09:19:53;6.23;;;4.60;;
11334;SDS011;5722;42.620;23.374;2022-10-16T09:22:25;4.93;;;3.90;;
11334;SDS011;5722;42.620;23.374;2022-10-16T09:24:55;4.77;;;3.97;;
11334;SDS011;5722;42.620;23.374;2022-10-16T09:27:31;5.60;;;3.83;;
11334;SDS011;5722;42.620;23.374;2022-10-16T09:30:01;6.30;;;3.77;;
11334;SDS011;5722;42.620;23.374;2022-10-16T09:32:30;9.00;;;4.23;;
11334;SDS011;5722;42.620;23.374;2022-10-16T09:35:09;5.70;;;4.00;;
11334;SDS011;5722;42.620;23.374;2022-10-16T09:37:40;5.57;;;3.87;;
11334;SDS011;5722;42.620;23.374;2022-10-16T09:40:11;5.80;;;4.40;;
11334;SDS011;5722;42.620;23.374;2022-10-16T09:42:41;5.30;;;4.20;;
11334;SDS011;5722;42.620;23.374;2022-10-16T09:45:22;3.80;;;3.40;;
11334;SDS011;5722;42.620;23.374;2022-10-16T09:47:51;4.67;;;3.93;;
11334;SDS011;5722;42.620;23.374;2022-10-16T09:50:35;5.93;;;3.83;;
11334;SDS011;5722;42.620;23.374;2022-10-16T09:53:05;5.60;;;4.10;;
11334;SDS011;5722;42.620;23.374;2022-10-16T09:55:47;4.23;;;3.47;;
11334;SDS011;5722;42.620;23.374;2022-10-16T09:58:21;5.53;;;3.63;;
11334;SDS011;5722;42.620;23.374;2022-10-16T10:00:49;5.50;;;3.80;;
11334;SDS011;5722;42.620;23.374;2022-10-16T10:03:32;7.13;;;3.80;;
11334;SDS011;5722;42.620;23.374;2022-10-16T10:06:05;7.23;;;3.93;;
11334;SDS011;5722;42.620;23.374;2022-10-16T10:08:33;4.53;;;3.50;;
11334;SDS011;5722;42.620;23.374;2022-10-16T10:11:02;4.10;;;3.50;;
11334;SDS011;5722;42.620;23.374;2022-10-16T10:13:34;6.03;;;3.47;;
11334;SDS011;5722;42.620;23.374;2022-10-16T10:16:03;4.70;;;3.63;;
11334;SDS011;5722;42.620;23.374;2022-10-16T10:18:33;4.73;;;3.97;;
11334;SDS011;5722;42.620;23.374;2022-10-16T10:21:12;4.77;;;3.50;;
11334;SDS011;5722;42.620;23.374;2022-10-16T10:23:54;5.80;;;4.00;;
11334;SDS011;5722;42.620;23.374;2022-10-16T10:26:24;5.63;;;3.55;;
11334;SDS011;5722;42.620;23.374;2022-10-16T10:28:58;5.35;;;4.25;;
11334;SDS011;5722;42.620;23.374;2022-10-16T10:31:29;5.70;;;3.85;;
11334;SDS011;5722;42.620;23.374;2022-10-16T10:34:04;4.80;;;4.00;;
11334;SDS011;5722;42.620;23.374;2022-10-16T10:36:42;8.00;;;4.07;;
11334;SDS011;5722;42.620;23.374;2022-10-16T10:39:13;7.22;;;4.10;;
11334;SDS011;5722;42.620;23.374;2022-10-16T10:42:00;6.07;;;4.28;;
11334;SDS011;5722;42.620;23.374;2022-10-16T10:44:44;4.93;;;3.88;;
11334;SDS011;5722;42.620;23.374;2022-10-16T10:47:18;4.85;;;4.10;;
11334;SDS011;5722;42.620;23.374;2022-10-16T10:49:57;5.15;;;3.72;;
11334;SDS011;5722;42.620;23.374;2022-10-16T10:55:36;6.53;;;3.92;;
11334;SDS011;5722;42.620;23.374;2022-10-16T10:58:10;4.90;;;3.92;;
11334;SDS011;5722;42.620;23.374;2022-10-16T11:00:44;6.68;;;3.92;;
11334;SDS011;5722;42.620;23.374;2022-10-16T11:03:19;5.75;;;4.13;;
11334;SDS011;5722;42.620;23.374;2022-10-16T11:05:50;4.43;;;3.88;;
11334;SDS011;5722;42.620;23.374;2022-10-16T11:08:25;6.03;;;4.32;;
11334;SDS011;5722;42.620;23.374;2022-10-16T11:10:57;3.85;;;3.13;;
11334;SDS011;5722;42.620;23.374;2022-10-16T11:13:32;3.92;;;3.30;;
11334;SDS011;5722;42.620;23.374;2022-10-16T11:16:11;3.85;;;3.35;;
11334;SDS011;5722;42.620;23.374;2022-10-16T11:18:42;4.57;;;3.60;;
11334;SDS011;5722;42.620;23.374;2022-10-16T11:21:17;6.97;;;3.67;;
11334;SDS011;5722;42.620;23.374;2022-10-16T11:23:49;13.13;;;5.95;;
11334;SDS011;5722;42.620;23.374;2022-10-16T11:26:20;7.00;;;4.18;;
11334;SDS011;5722;42.620;23.374;2022-10-16T11:28:51;4.32;;;2.58;;
11334;SDS011;5722;42.620;23.374;2022-10-16T11:34:06;6.38;;;2.80;;
11334;SDS011;5722;42.620;23.374;2022-10-16T11:36:42;4.10;;;3.60;;
11334;SDS011;5722;42.620;23.374;2022-10-16T11:39:22;13.80;;;12.35;;
11334;SDS011;5722;42.620;23.374;2022-10-16T11:41:56;14.30;;;10.38;;
11334;SDS011;5722;42.620;23.374;2022-10-16T11:44:41;2.92;;;2.50;;
11334;SDS011;5722;42.620;23.374;2022-10-16T11:47:16;6.45;;;3.17;;
11334;SDS011;5722;42.620;23.374;2022-10-16T11:49:51;2.78;;;2.40;;
11334;SDS011;5722;42.620;23.374;2022-10-16T11:52:24;2.60;;;2.33;;
11334;SDS011;5722;42.620;23.374;2022-10-16T11:54:54;3.30;;;2.63;;
11334;SDS011;5722;42.620;23.374;2022-10-16T11:57:26;4.63;;;2.65;;
11334;SDS011;5722;42.620;23.374;2022-10-16T11:59:55;6.82;;;3.90;;
11334;SDS011;5722;42.620;23.374;2022-10-16T12:02:33;2.70;;;2.50;;
11334;SDS011;5722;42.620;23.374;2022-10-16T12:05:05;8.77;;;5.70;;
11334;SDS011;5722;42.620;23.374;2022-10-16T12:07:35;5.47;;;3.25;;
11334;SDS011;5722;42.620;23.374;2022-10-16T12:10:10;6.20;;;4.35;;
11334;SDS011;5722;42.620;23.374;2022-10-16T12:12:43;3.80;;;2.60;;
11334;SDS011;5722;42.620;23.374;2022-10-16T12:15:20;2.55;;;2.15;;
11334;SDS011;5722;42.620;23.374;2022-10-16T12:18:00;8.63;;;5.18;;
11334;SDS011;5722;42.620;23.374;2022-10-16T12:20:29;10.43;;;5.05;;
11334;SDS011;5722;42.620;23.374;2022-10-16T12:23:02;21.27;;;7.43;;
11334;SDS011;5722;42.620;23.374;2022-10-16T12:25:36;3.83;;;2.78;;
11334;SDS011;5722;42.620;23.374;2022-10-16T12:28:19;12.35;;;4.97;;
11334;SDS011;5722;42.620;23.374;2022-10-16T12:30:52;11.48;;;5.85;;
11334;SDS011;5722;42.620;23.374;2022-10-16T12:33:19;6.15;;;3.65;;
11334;SDS011;5722;42.620;23.374;2022-10-16T12:35:55;4.10;;;3.00;;
11334;SDS011;5722;42.620;23.374;2022-10-16T12:38:25;2.55;;;2.35;;
11334;SDS011;5722;42.620;23.374;2022-10-16T12:41:01;4.72;;;2.38;;
11334;SDS011;5722;42.620;23.374;2022-10-16T12:43:43;4.45;;;2.90;;
11334;SDS011;5722;42.620;23.374;2022-10-16T12:46:33;5.20;;;3.65;;
11334;SDS011;5722;42.620;23.374;2022-10-16T12:49:07;4.80;;;2.60;;
11334;SDS011;5722;42.620;23.374;2022-10-16T12:51:46;4.00;;;2.92;;
11334;SDS011;5722;42.620;23.374;2022-10-16T12:54:16;7.68;;;4.22;;
11334;SDS011;5722;42.620;23.374;2022-10-16T12:56:46;4.35;;;3.25;;
11334;SDS011;5722;42.620;23.374;2022-10-16T12:59:28;3.63;;;2.30;;
11334;SDS011;5722;42.620;23.374;2022-10-16T13:05:05;4.25;;;2.70;;
11334;SDS011;5722;42.620;23.374;2022-10-16T13:07:44;3.58;;;2.70;;
11334;SDS011;5722;42.620;23.374;2022-10-16T13:12:57;3.22;;;2.40;;
11334;SDS011;5722;42.620;23.374;2022-10-16T13:18:16;3.58;;;3.00;;
11334;SDS011;5722;42.620;23.374;2022-10-16T13:20:59;7.03;;;3.40;;
11334;SDS011;5722;42.620;23.374;2022-10-16T13:23:35;2.90;;;2.60;;
11334;SDS011;5722;42.620;23.374;2022-10-16T13:26:19;3.80;;;2.45;;
11334;SDS011;5722;42.620;23.374;2022-10-16T13:28:52;3.28;;;2.35;;
11334;SDS011;5722;42.620;23.374;2022-10-16T13:31:21;5.45;;;3.15;;
11334;SDS011;5722;42.620;23.374;2022-10-16T13:33:52;6.03;;;3.40;;
11334;SDS011;5722;42.620;23.374;2022-10-16T13:36:29;5.57;;;3.42;;
11334;SDS011;5722;42.620;23.374;2022-10-16T13:41:43;2.40;;;2.20;;
11334;SDS011;5722;42.620;23.374;2022-10-16T13:44:28;2.70;;;2.50;;
11334;SDS011;5722;42.620;23.374;2022-10-16T13:47:10;3.90;;;2.47;;
11334;SDS011;5722;42.620;23.374;2022-10-16T13:50:04;6.22;;;4.10;;
11334;SDS011;5722;42.620;23.374;2022-10-16T13:52:35;5.05;;;3.10;;
11334;SDS011;5722;42.620;23.374;2022-10-16T13:55:17;11.63;;;3.10;;
11334;SDS011;5722;42.620;23.374;2022-10-16T13:57:45;4.25;;;2.28;;
11334;SDS011;5722;42.620;23.374;2022-10-16T14:03:19;4.57;;;2.28;;
11334;SDS011;5722;42.620;23.374;2022-10-16T14:05:51;2.90;;;2.60;;
11334;SDS011;5722;42.620;23.374;2022-10-16T14:08:19;3.40;;;2.70;;
11334;SDS011;5722;42.620;23.374;2022-10-16T14:10:50;6.20;;;2.25;;
11334;SDS011;5722;42.620;23.374;2022-10-16T14:13:18;3.30;;;2.67;;
11334;SDS011;5722;42.620;23.374;2022-10-16T14:15:48;4.32;;;2.88;;
11334;SDS011;5722;42.620;23.374;2022-10-16T14:18:21;6.82;;;3.70;;
11334;SDS011;5722;42.620;23.374;2022-10-16T14:20:52;7.45;;;2.78;;
11334;SDS011;5722;42.620;23.374;2022-10-16T14:23:22;2.38;;;2.17;;
11334;SDS011;5722;42.620;23.374;2022-10-16T14:25:53;4.55;;;3.00;;
11334;SDS011;5722;42.620;23.374;2022-10-16T14:28:29;4.35;;;3.28;;
11334;SDS011;5722;42.620;23.374;2022-10-16T14:31:01;8.60;;;4.45;;
11334;SDS011;5722;42.620;23.374;2022-10-16T14:33:32;5.18;;;3.53;;
11334;SDS011;5722;42.620;23.374;2022-10-16T14:36:10;3.53;;;2.95;;
11334;SDS011;5722;42.620;23.374;2022-10-16T14:38:40;16.52;;;10.38;;
11334;SDS011;5722;42.620;23.374;2022-10-16T14:41:08;24.90;;;14.00;;
11334;SDS011;5722;42.620;23.374;2022-10-16T14:43:36;12.25;;;6.40;;
11334;SDS011;5722;42.620;23.374;2022-10-16T14:46:05;4.68;;;2.88;;
11334;SDS011;5722;42.620;23.374;2022-10-16T14:48:33;13.63;;;8.07;;
11334;SDS011;5722;42.620;23.374;2022-10-16T14:51:02;4.35;;;2.80;;
11334;SDS011;5722;42.620;23.374;2022-10-16T14:56:19;16.45;;;8.82;;
11334;SDS011;5722;42.620;23.374;2022-10-16T14:58:49;27.92;;;17.33;;
11334;SDS011;5722;42.620;23.374;2022-10-16T15:01:20;5.28;;;2.95;;
11334;SDS011;5722;42.620;23.374;2022-10-16T15:03:51;24.33;;;13.52;;
11334;SDS011;5722;42.620;23.374;2022-10-16T15:06:20;23.85;;;15.20;;
11334;SDS011;5722;42.620;23.374;2022-10-16T15:08:57;8.50;;;5.07;;
11334;SDS011;5722;42.620;23.374;2022-10-16T15:11:27;17.48;;;8.15;;
11334;SDS011;5722;42.620;23.374;2022-10-16T15:13:54;6.30;;;4.35;;
11334;SDS011;5722;42.620;23.374;2022-10-16T15:16:27;4.90;;;3.17;;
11334;SDS011;5722;42.620;23.374;2022-10-16T15:18:56;16.13;;;10.07;;
11334;SDS011;5722;42.620;23.374;2022-10-16T15:21:24;20.13;;;10.25;;
11334;SDS011;5722;42.620;23.374;2022-10-16T15:23:57;7.03;;;3.90;;
11334;SDS011;5722;42.620;23.374;2022-10-16T15:26:29;9.10;;;2.97;;
11334;SDS011;5722;42.620;23.374;2022-10-16T15:28:56;5.85;;;3.00;;
11334;SDS011;5722;42.620;23.374;2022-10-16T15:31:28;8.80;;;3.70;;
11334;SDS011;5722;42.620;23.374;2022-10-16T15:34:08;10.07;;;3.20;;
11334;SDS011;5722;42.620;23.374;2022-10-16T15:36:48;11.27;;;3.80;;
11334;SDS011;5722;42.620;23.374;2022-10-16T15:39:27;9.63;;;3.70;;
11334;SDS011;5722;42.620;23.374;2022-10-16T15:42:00;8.83;;;3.17;;
11334;SDS011;5722;42.620;23.374;2022-10-16T15:44:28;12.27;;;3.70;;
11334;SDS011;5722;42.620;23.374;2022-10-16T15:46:58;7.77;;;3.17;;
11334;SDS011;5722;42.620;23.374;2022-10-16T15:49:30;6.40;;;3.20;;
11334;SDS011;5722;42.620;23.374;2022-10-16T15:51:59;6.40;;;3.20;;
11334;SDS011;5722;42.620;23.374;2022-10-16T15:54:27;6.47;;;3.80;;
11334;SDS011;5722;42.620;23.374;2022-10-16T15:56:55;7.07;;;4.30;;
11334;SDS011;5722;42.620;23.374;2022-10-16T15:59:34;5.23;;;4.03;;
11334;SDS011;5722;42.620;23.374;2022-10-16T16:02:05;4.13;;;3.50;;
11334;SDS011;5722;42.620;23.374;2022-10-16T16:04:45;5.40;;;3.60;;
11334;SDS011;5722;42.620;23.374;2022-10-16T16:07:15;11.07;;;4.07;;
11334;SDS011;5722;42.620;23.374;2022-10-16T16:09:48;8.13;;;3.93;;
11334;SDS011;5722;42.620;23.374;2022-10-16T16:12:14;8.23;;;3.83;;
11334;SDS011;5722;42.620;23.374;2022-10-16T16:14:53;9.17;;;4.00;;
11334;SDS011;5722;42.620;23.374;2022-10-16T16:17:20;5.77;;;4.07;;
11334;SDS011;5722;42.620;23.374;2022-10-16T16:19:47;11.37;;;4.30;;
11334;SDS011;5722;42.620;23.374;2022-10-16T16:22:16;5.00;;;3.73;;
11334;SDS011;5722;42.620;23.374;2022-10-16T16:24:55;6.50;;;4.23;;
11334;SDS011;5722;42.620;23.374;2022-10-16T16:27:30;7.60;;;4.00;;
11334;SDS011;5722;42.620;23.374;2022-10-16T16:30:06;11.73;;;3.63;;
11334;SDS011;5722;42.620;23.374;2022-10-16T16:32:40;6.70;;;4.77;;
11334;SDS011;5722;42.620;23.374;2022-10-16T16:35:18;9.47;;;5.63;;
11334;SDS011;5722;42.620;23.374;2022-10-16T16:37:49;11.70;;;6.90;;
11334;SDS011;5722;42.620;23.374;2022-10-16T16:40:18;11.87;;;7.33;;
11334;SDS011;5722;42.620;23.374;2022-10-16T16:43:03;12.10;;;9.07;;
11334;SDS011;5722;42.620;23.374;2022-10-16T16:45:41;10.83;;;7.73;;
11334;SDS011;5722;42.620;23.374;2022-10-16T16:48:08;14.13;;;7.40;;
11334;SDS011;5722;42.620;23.374;2022-10-16T16:50:44;12.20;;;7.67;;
11334;SDS011;5722;42.620;23.374;2022-10-16T16:53:19;14.00;;;9.20;;
11334;SDS011;5722;42.620;23.374;2022-10-16T16:55:51;9.97;;;7.47;;
11334;SDS011;5722;42.620;23.374;2022-10-16T16:58:26;10.57;;;8.50;;
11334;SDS011;5722;42.620;23.374;2022-10-16T17:00:58;10.87;;;7.93;;
11334;SDS011;5722;42.620;23.374;2022-10-16T17:03:27;9.03;;;7.97;;
11334;SDS011;5722;42.620;23.374;2022-10-16T17:05:55;10.87;;;7.53;;
11334;SDS011;5722;42.620;23.374;2022-10-16T17:08:27;9.73;;;8.07;;
11334;SDS011;5722;42.620;23.374;2022-10-16T17:10:55;12.80;;;8.37;;
11334;SDS011;5722;42.620;23.374;2022-10-16T17:13:30;9.23;;;7.73;;
11334;SDS011;5722;42.620;23.374;2022-10-16T17:16:05;14.70;;;8.73;;
11334;SDS011;5722;42.620;23.374;2022-10-16T17:18:33;13.63;;;9.90;;
11334;SDS011;5722;42.620;23.374;2022-10-16T17:21:01;16.57;;;11.00;;
11334;SDS011;5722;42.620;23.374;2022-10-16T17:23:32;18.50;;;12.13;;
11334;SDS011;5722;42.620;23.374;2022-10-16T17:26:03;16.23;;;12.10;;
11334;SDS011;5722;42.620;23.374;2022-10-16T17:28:37;17.70;;;12.00;;
11334;SDS011;5722;42.620;23.374;2022-10-16T17:31:12;15.07;;;10.47;;
11334;SDS011;5722;42.620;23.374;2022-10-16T17:33:40;14.90;;;10.40;;
11334;SDS011;5722;42.620;23.374;2022-10-16T17:36:16;16.17;;;10.63;;
11334;SDS011;5722;42.620;23.374;2022-10-16T17:38:45;17.27;;;12.03;;
11334;SDS011;5722;42.620;23.374;2022-10-16T17:41:14;22.73;;;12.30;;
11334;SDS011;5722;42.620;23.374;2022-10-16T17:43:45;18.40;;;12.23;;
11334;SDS011;5722;42.620;23.374;2022-10-16T17:46:18;15.33;;;11.07;;
11334;SDS011;5722;42.620;23.374;2022-10-16T17:48:46;17.93;;;10.03;;
11334;SDS011;5722;42.620;23.374;2022-10-16T17:51:21;20.37;;;9.87;;
11334;SDS011;5722;42.620;23.374;2022-10-16T17:53:54;14.30;;;9.50;;
11334;SDS011;5722;42.620;23.374;2022-10-16T17:56:33;12.37;;;9.07;;